createdAt,value
2023-02-11T00:00:41.326Z,29.57
2023-02-11T00:03:08.235Z,30.27
2023-02-11T00:05:35.192Z,30.80
2023-02-11T00:08:01.775Z,28.97
2023-02-11T00:10:28.299Z,30.17
2023-02-11T00:12:54.846Z,30.00
2023-02-11T00:15:21.454Z,29.77
2023-02-11T00:17:48.078Z,30.67
2023-02-11T00:20:14.933Z,30.47
2023-02-11T00:22:41.602Z,30.65
2023-02-11T00:25:08.369Z,30.40
2023-02-11T00:27:36.901Z,30.03
2023-02-11T00:30:05.209Z,30.15
2023-02-11T00:32:31.800Z,29.23
2023-02-11T00:34:58.376Z,31.67
2023-02-11T00:37:24.958Z,30.30
2023-02-11T00:39:51.511Z,30.90
2023-02-11T00:42:18.130Z,31.57
2023-02-11T00:44:44.687Z,31.55
2023-02-11T00:47:11.187Z,29.07
2023-02-11T00:49:39.562Z,30.13
2023-02-11T00:52:06.524Z,29.98
2023-02-11T00:54:33.065Z,31.58
2023-02-11T00:56:59.571Z,30.23
2023-02-11T00:59:26.141Z,31.07
2023-02-11T01:01:52.713Z,31.10
2023-02-11T01:04:19.291Z,30.30
2023-02-11T01:06:45.849Z,32.33
2023-02-11T01:09:12.364Z,30.53
2023-02-11T01:11:38.902Z,31.65
2023-02-11T01:14:05.485Z,30.88
2023-02-11T01:16:32.109Z,31.73
2023-02-11T01:18:58.782Z,31.30
2023-02-11T01:21:25.713Z,32.28
2023-02-11T01:23:52.780Z,30.17
2023-02-11T01:26:19.440Z,31.43
2023-02-11T01:28:46.296Z,31.55
2023-02-11T01:31:12.985Z,31.90
2023-02-11T01:33:39.747Z,31.83
2023-02-11T01:36:06.734Z,32.40
2023-02-11T01:38:34.397Z,32.43
2023-02-11T01:41:04.202Z,30.40
2023-02-11T01:43:41.230Z,31.65
2023-02-11T01:46:36.991Z,31.10
2023-02-11T01:49:14.648Z,30.80
2023-02-11T01:51:50.124Z,32.03
2023-02-11T01:54:40.224Z,31.00
2023-02-11T01:57:23.181Z,32.50
2023-02-11T02:00:00.604Z,31.33
2023-02-11T02:02:36.670Z,32.20
2023-02-11T02:05:24.082Z,32.00
2023-02-11T02:08:03.214Z,32.60
2023-02-11T02:10:31.139Z,31.88
2023-02-11T02:12:57.718Z,33.47
2023-02-11T02:15:33.428Z,32.78
2023-02-11T02:18:33.842Z,34.13
2023-02-11T02:21:30.748Z,32.67
2023-02-11T02:24:27.520Z,33.00
2023-02-11T02:27:22.346Z,32.70
2023-02-11T02:30:10.513Z,32.77
2023-02-11T02:32:52.321Z,33.63
2023-02-11T02:35:40.084Z,32.97
2023-02-11T02:38:15.252Z,32.63
2023-02-11T02:40:49.215Z,33.80
2023-02-11T02:43:17.294Z,31.50
2023-02-11T02:45:44.037Z,34.10
2023-02-11T02:48:28.173Z,33.33
2023-02-11T02:51:25.537Z,32.73
2023-02-11T02:54:18.950Z,31.80
2023-02-11T02:57:11.132Z,32.23
2023-02-11T02:59:54.401Z,31.73
2023-02-11T03:02:26.622Z,33.17
2023-02-11T03:05:16.112Z,31.73
2023-02-11T03:07:54.646Z,32.63
2023-02-11T03:10:31.267Z,31.85
2023-02-11T03:12:58.976Z,34.08
2023-02-11T03:15:28.264Z,33.43
2023-02-11T03:20:23.306Z,32.00
2023-02-11T03:22:58.302Z,33.08
2023-02-11T03:25:31.761Z,32.60
2023-02-11T03:28:18.022Z,32.43
2023-02-11T03:30:56.317Z,34.58
2023-02-11T03:33:31.919Z,32.13
2023-02-11T03:36:07.724Z,33.40
2023-02-11T03:38:39.683Z,33.67
2023-02-11T03:41:07.879Z,33.60
2023-02-11T03:43:40.427Z,32.73
2023-02-11T03:46:08.493Z,33.13
2023-02-11T03:48:58.545Z,34.07
2023-02-11T03:51:27.696Z,34.07
2023-02-11T03:53:57.694Z,32.92
2023-02-11T03:56:27.082Z,31.37
2023-02-11T03:58:53.876Z,31.33
2023-02-11T04:01:20.603Z,34.03
2023-02-11T04:03:47.244Z,32.85
2023-02-11T04:06:13.946Z,33.40
2023-02-11T04:08:40.543Z,32.00
2023-02-11T04:11:07.108Z,31.20
2023-02-11T04:13:33.609Z,32.40
2023-02-11T04:16:00.229Z,32.83
2023-02-11T04:18:26.876Z,33.10
2023-02-11T04:20:53.373Z,32.45
2023-02-11T04:23:19.942Z,32.20
2023-02-11T04:25:46.510Z,33.43
2023-02-11T04:28:13.194Z,31.80
2023-02-11T04:30:39.885Z,33.78
2023-02-11T04:33:06.512Z,31.20
2023-02-11T04:35:33.239Z,31.90
2023-02-11T04:37:59.766Z,30.47
2023-02-11T04:40:26.285Z,32.20
2023-02-11T04:42:52.899Z,33.42
2023-02-11T04:45:20.635Z,32.90
2023-02-11T04:47:47.146Z,31.37
2023-02-11T04:50:13.646Z,32.27
2023-02-11T04:52:40.299Z,31.13
2023-02-11T04:55:07.268Z,33.03
2023-02-11T04:57:33.839Z,32.67
2023-02-11T05:00:00.418Z,32.30
2023-02-11T05:02:27.270Z,31.43
2023-02-11T05:04:53.817Z,31.60
2023-02-11T05:07:20.332Z,28.80
2023-02-11T05:09:46.878Z,30.07
2023-02-11T05:12:13.409Z,30.23
2023-02-11T05:14:39.929Z,29.67
2023-02-11T05:17:06.566Z,29.40
2023-02-11T05:19:33.235Z,30.75
2023-02-11T05:22:03.097Z,29.43
2023-02-11T05:24:32.262Z,29.93
2023-02-11T05:26:58.953Z,29.40
2023-02-11T05:29:25.469Z,30.20
2023-02-11T05:31:52.403Z,29.50
2023-02-11T05:34:18.981Z,28.23
2023-02-11T05:36:45.622Z,28.90
2023-02-11T05:39:12.235Z,29.40
2023-02-11T05:41:38.881Z,29.93
2023-02-11T05:44:05.426Z,28.98
2023-02-11T05:46:32.044Z,29.73
2023-02-11T05:48:58.671Z,29.83
2023-02-11T05:51:25.249Z,29.38
2023-02-11T05:53:51.832Z,29.00
2023-02-11T05:56:18.351Z,27.65
2023-02-11T05:58:44.929Z,28.77
2023-02-11T06:01:11.538Z,27.53
2023-02-11T06:03:38.094Z,28.60
2023-02-11T06:06:05.074Z,27.47
2023-02-11T06:08:31.628Z,27.83
2023-02-11T06:10:58.149Z,27.90
2023-02-11T06:13:24.715Z,28.40
2023-02-11T06:15:59.162Z,28.37
2023-02-11T06:18:26.094Z,27.70
2023-02-11T06:20:52.959Z,28.87
2023-02-11T06:23:19.656Z,29.52
2023-02-11T06:25:46.152Z,25.52
2023-02-11T06:28:13.001Z,27.05
2023-02-11T06:30:39.882Z,29.03
2023-02-11T06:33:06.519Z,28.25
2023-02-11T06:35:35.191Z,27.70
2023-02-11T06:38:02.001Z,28.77
2023-02-11T06:40:28.533Z,28.98
2023-02-11T06:42:55.135Z,30.65
2023-02-11T06:45:21.668Z,29.13
2023-02-11T06:47:50.962Z,28.90
2023-02-11T06:52:44.138Z,23.97
2023-02-11T06:55:10.786Z,26.17
2023-02-11T06:57:37.353Z,27.75
2023-02-11T07:00:05.688Z,28.50
2023-02-11T07:02:32.453Z,28.40
2023-02-11T07:04:58.985Z,28.13
2023-02-11T07:07:25.629Z,26.67
2023-02-11T07:09:52.275Z,26.83
2023-02-11T07:12:18.864Z,28.47
2023-02-11T07:14:45.486Z,28.63
2023-02-11T07:17:12.076Z,28.00
2023-02-11T07:19:38.590Z,28.13
2023-02-11T07:22:05.086Z,26.40
2023-02-11T07:24:31.698Z,27.00
2023-02-11T07:26:58.405Z,27.57
2023-02-11T07:29:24.998Z,27.52
2023-02-11T07:31:51.606Z,27.00
2023-02-11T07:34:18.327Z,42.35
2023-02-11T07:36:45.030Z,26.27
2023-02-11T07:39:11.548Z,25.98
2023-02-11T07:41:38.591Z,25.38
2023-02-11T07:44:05.272Z,25.83
2023-02-11T07:46:32.120Z,24.42
2023-02-11T07:48:58.714Z,23.00
2023-02-11T07:51:27.884Z,26.08
2023-02-11T07:53:56.286Z,22.25
2023-02-11T07:56:23.526Z,21.67
2023-02-11T07:58:50.718Z,21.55
2023-02-11T08:01:24.906Z,22.73
2023-02-11T08:03:52.035Z,22.77
2023-02-11T08:06:21.134Z,24.60
2023-02-11T08:08:48.373Z,22.90
2023-02-11T08:11:23.265Z,23.58
2023-02-11T08:13:50.331Z,22.52
2023-02-11T08:16:28.770Z,23.33
2023-02-11T08:19:01.342Z,23.42
2023-02-11T08:21:28.590Z,23.15
2023-02-11T08:23:55.985Z,24.40
2023-02-11T08:26:25.711Z,23.00
2023-02-11T08:28:54.379Z,24.45
2023-02-11T08:31:27.246Z,17.25
2023-02-11T08:33:54.905Z,22.98
2023-02-11T08:36:23.585Z,24.50
2023-02-11T08:38:50.210Z,23.52
2023-02-11T08:41:17.668Z,23.73
2023-02-11T08:43:45.262Z,20.95
2023-02-11T08:46:14.633Z,22.95
2023-02-11T08:48:41.488Z,23.83
2023-02-11T08:51:09.701Z,23.15
2023-02-11T08:53:36.990Z,23.98
2023-02-11T08:56:03.969Z,23.05
2023-02-11T08:58:30.632Z,23.55
2023-02-11T09:00:57.221Z,22.55
2023-02-11T09:03:24.224Z,23.77
2023-02-11T09:05:53.170Z,24.05
2023-02-11T09:08:20.831Z,18.17
2023-02-11T09:10:47.353Z,23.92
2023-02-11T09:13:14.039Z,21.88
2023-02-11T09:15:40.643Z,22.98
2023-02-11T09:18:07.482Z,23.83
2023-02-11T09:20:34.136Z,23.20
2023-02-11T09:23:00.721Z,23.17
2023-02-11T09:25:27.287Z,23.65
2023-02-11T09:27:53.994Z,22.00
2023-02-11T09:30:21.037Z,22.42
2023-02-11T09:32:47.724Z,23.10
2023-02-11T09:35:14.405Z,23.42
2023-02-11T09:37:40.988Z,23.90
2023-02-11T09:40:08.030Z,24.23
2023-02-11T09:43:01.169Z,23.55
2023-02-11T09:45:30.843Z,22.67
2023-02-11T09:48:06.704Z,24.08
2023-02-11T09:50:39.375Z,24.50
2023-02-11T09:53:25.144Z,25.05
2023-02-11T09:55:57.359Z,24.50
2023-02-11T09:58:35.266Z,24.20
2023-02-11T10:01:13.675Z,24.00
2023-02-11T10:04:04.841Z,24.63
2023-02-11T10:06:55.077Z,24.23
2023-02-11T10:09:45.417Z,23.17
2023-02-11T10:12:22.111Z,23.38
2023-02-11T10:15:08.228Z,23.35
2023-02-11T10:17:55.416Z,24.77
2023-02-11T10:20:36.927Z,21.02
2023-02-11T10:23:17.901Z,23.60
2023-02-11T10:25:48.214Z,24.92
2023-02-11T10:28:18.182Z,24.65
2023-02-11T10:31:04.902Z,23.83
2023-02-11T10:33:52.482Z,22.40
2023-02-11T10:36:20.982Z,24.65
2023-02-11T10:38:47.492Z,26.13
2023-02-11T10:41:20.252Z,24.50
2023-02-11T10:43:46.772Z,25.63
2023-02-11T10:46:24.027Z,24.20
2023-02-11T10:48:53.274Z,23.67
2023-02-11T10:51:24.067Z,25.10
2023-02-11T10:54:19.325Z,24.95
2023-02-11T10:56:54.686Z,25.40
2023-02-11T10:59:37.419Z,23.88
2023-02-11T11:02:34.585Z,23.08
2023-02-11T11:05:05.797Z,25.25
2023-02-11T11:07:34.172Z,23.77
2023-02-11T11:10:08.397Z,23.63
2023-02-11T11:12:47.910Z,23.98
2023-02-11T11:15:28.565Z,25.13
2023-02-11T11:18:21.382Z,23.73
2023-02-11T11:21:05.617Z,23.73
2023-02-11T11:23:33.456Z,23.83
2023-02-11T11:26:12.303Z,23.40
2023-02-11T11:28:46.852Z,26.15
2023-02-11T11:31:26.925Z,23.63
2023-02-11T11:33:56.829Z,23.23
2023-02-11T11:36:32.072Z,25.17
2023-02-11T11:39:03.040Z,22.98
2023-02-11T11:41:32.883Z,23.80
2023-02-11T11:44:15.187Z,25.55
2023-02-11T11:46:44.269Z,24.40
2023-02-11T11:49:25.291Z,24.13
2023-02-11T11:52:13.795Z,24.95
2023-02-11T11:54:43.320Z,25.52
2023-02-11T11:57:17.573Z,25.40
2023-02-11T11:59:44.882Z,23.77
2023-02-11T12:02:50.474Z,24.13
2023-02-11T12:05:27.821Z,24.58
2023-02-11T12:08:13.298Z,23.35
2023-02-11T12:11:04.537Z,21.73
2023-02-11T12:13:57.250Z,23.90
2023-02-11T12:16:36.062Z,23.83
2023-02-11T12:19:41.028Z,24.55
2023-02-11T12:22:25.004Z,22.70
2023-02-11T12:25:22.025Z,23.08
2023-02-11T12:28:13.457Z,24.45
2023-02-11T12:30:54.527Z,21.35
2023-02-11T12:33:58.276Z,21.02
2023-02-11T12:36:54.238Z,21.60
2023-02-11T12:39:48.138Z,21.70
2023-02-11T12:43:10.352Z,21.67
2023-02-11T12:46:01.845Z,22.95
2023-02-11T12:48:47.094Z,23.35
2023-02-11T12:51:44.732Z,22.25
2023-02-11T12:54:23.071Z,21.88
2023-02-11T12:56:59.378Z,21.67
2023-02-11T12:59:50.002Z,20.95
2023-02-11T13:02:36.131Z,22.13
2023-02-11T13:05:23.632Z,22.38
2023-02-11T13:07:52.943Z,21.65
2023-02-11T13:13:11.186Z,21.40
2023-02-11T13:15:38.684Z,21.08
2023-02-11T13:18:29.967Z,20.35
2023-02-11T13:21:04.180Z,20.63
2023-02-11T13:24:05.385Z,19.73
2023-02-11T13:26:31.939Z,20.42
2023-02-11T13:29:23.309Z,20.35
2023-02-11T13:31:55.315Z,20.02
2023-02-11T13:34:54.040Z,20.02
2023-02-11T13:37:37.056Z,19.67
2023-02-11T13:40:06.670Z,20.17
2023-02-11T13:42:46.986Z,19.48
2023-02-11T13:45:37.860Z,20.48
2023-02-11T13:48:08.180Z,19.92
2023-02-11T13:50:46.520Z,19.05
2023-02-11T13:53:15.939Z,14.77
2023-02-11T13:55:48.392Z,19.58
2023-02-11T13:58:14.877Z,20.90
2023-02-11T14:00:50.918Z,19.05
2023-02-11T14:03:58.619Z,19.00
2023-02-11T14:06:47.824Z,17.73
2023-02-11T14:09:14.352Z,16.73
2023-02-11T14:11:47.990Z,16.75
2023-02-11T14:14:28.541Z,16.88
2023-02-11T14:16:58.415Z,17.35
2023-02-11T14:19:33.522Z,16.67
2023-02-11T14:22:11.745Z,17.35
2023-02-11T14:24:44.869Z,18.05
2023-02-11T14:27:27.577Z,17.15
2023-02-11T14:30:07.076Z,16.25
2023-02-11T14:32:50.475Z,14.65
2023-02-11T14:35:35.380Z,15.52
2023-02-11T14:38:04.679Z,15.60
2023-02-11T14:40:40.137Z,16.58
2023-02-11T14:43:13.631Z,15.27
2023-02-11T14:45:41.002Z,15.70
2023-02-11T14:48:18.692Z,15.45
2023-02-11T14:50:50.256Z,17.38
2023-02-11T14:53:23.359Z,16.70
2023-02-11T14:55:54.888Z,16.88
2023-02-11T14:58:22.880Z,16.23
2023-02-11T15:01:00.642Z,16.85
2023-02-11T15:03:30.854Z,14.48
2023-02-11T15:06:00.155Z,14.57
2023-02-11T15:08:28.401Z,14.70
2023-02-11T15:10:56.707Z,17.35
2023-02-11T15:13:30.975Z,15.60
2023-02-11T15:16:06.443Z,13.70
2023-02-11T15:18:42.117Z,13.70
2023-02-11T15:21:09.694Z,12.85
2023-02-11T15:23:37.139Z,12.88
2023-02-11T15:26:13.528Z,13.10
2023-02-11T15:28:51.789Z,12.88
2023-02-11T15:31:23.226Z,13.05
2023-02-11T15:33:50.883Z,11.30
2023-02-11T15:36:19.663Z,11.98
2023-02-11T15:38:46.336Z,11.75
2023-02-11T15:41:37.532Z,11.88
2023-02-11T15:44:04.239Z,11.07
2023-02-11T15:46:38.416Z,12.55
2023-02-11T15:49:06.371Z,12.05
2023-02-11T15:51:38.714Z,11.25
2023-02-11T15:54:18.531Z,11.90
2023-02-11T15:56:51.216Z,10.77
2023-02-11T15:59:33.135Z,11.52
2023-02-11T16:02:15.887Z,11.20
2023-02-11T16:04:57.158Z,11.40
2023-02-11T16:07:49.469Z,12.38
2023-02-11T16:10:18.712Z,11.75
2023-02-11T16:13:02.228Z,11.15
2023-02-11T16:15:34.859Z,11.25
2023-02-11T16:18:04.064Z,11.18
2023-02-11T16:20:31.077Z,11.07
2023-02-11T16:22:57.758Z,11.68
2023-02-11T16:25:24.375Z,12.05
2023-02-11T16:27:53.016Z,11.40
2023-02-11T16:30:36.432Z,11.45
2023-02-11T16:33:04.141Z,11.77
2023-02-11T16:35:31.064Z,12.32
2023-02-11T16:37:57.712Z,12.27
2023-02-11T16:40:24.333Z,11.98
2023-02-11T16:42:52.347Z,11.65
2023-02-11T16:45:19.202Z,12.88
2023-02-11T16:47:46.120Z,12.30
2023-02-11T16:50:25.047Z,12.40
2023-02-11T16:52:52.334Z,11.00
2023-02-11T16:55:19.158Z,12.50
2023-02-11T16:57:45.666Z,12.20
2023-02-11T17:00:16.293Z,11.55
2023-02-11T17:02:43.474Z,12.02
2023-02-11T17:05:19.831Z,11.98
2023-02-11T17:07:46.892Z,11.95
2023-02-11T17:10:22.529Z,12.23
2023-02-11T17:12:50.842Z,11.65
2023-02-11T17:15:17.471Z,12.75
2023-02-11T17:17:44.434Z,13.27
2023-02-11T17:20:12.507Z,12.27
2023-02-11T17:22:39.230Z,13.73
2023-02-11T17:25:06.552Z,13.13
2023-02-11T17:27:33.444Z,12.63
2023-02-11T17:30:00.233Z,14.07
2023-02-11T17:32:26.949Z,15.68
2023-02-11T17:34:54.456Z,15.00
2023-02-11T17:37:20.958Z,16.02
2023-02-11T17:39:49.649Z,16.02
2023-02-11T17:42:16.377Z,16.83
2023-02-11T17:44:44.148Z,17.75
2023-02-11T17:47:11.474Z,16.80
2023-02-11T17:49:38.675Z,18.30
2023-02-11T17:52:05.464Z,17.60
2023-02-11T17:54:32.037Z,18.33
2023-02-11T17:56:58.787Z,18.48
2023-02-11T17:59:25.856Z,18.02
2023-02-11T18:01:52.426Z,18.15
2023-02-11T18:04:19.839Z,18.05
2023-02-11T18:06:46.674Z,18.33
2023-02-11T18:09:13.399Z,18.77
2023-02-11T18:11:40.812Z,17.63
2023-02-11T18:14:08.278Z,18.23
2023-02-11T18:16:36.519Z,19.27
2023-02-11T18:19:04.054Z,19.33
2023-02-11T18:21:30.737Z,19.60
2023-02-11T18:23:57.243Z,19.25
2023-02-11T18:26:26.244Z,20.60
2023-02-11T18:28:52.791Z,21.58
2023-02-11T18:31:19.688Z,18.70
2023-02-11T18:33:47.742Z,18.73
2023-02-11T18:36:15.620Z,19.95
2023-02-11T18:38:44.290Z,19.95
2023-02-11T18:41:11.577Z,20.55
2023-02-11T18:43:39.318Z,20.35
2023-02-11T18:46:11.761Z,21.48
2023-02-11T18:48:38.446Z,20.38
2023-02-11T18:51:12.726Z,20.50
2023-02-11T18:53:39.417Z,22.08
2023-02-11T18:56:11.781Z,20.52
2023-02-11T18:58:38.882Z,20.70
2023-02-11T19:01:14.356Z,19.25
2023-02-11T19:03:41.251Z,21.98
2023-02-11T19:06:13.107Z,23.25
2023-02-11T19:08:39.730Z,21.23
2023-02-11T19:11:06.320Z,22.15
2023-02-11T19:13:32.914Z,20.90
2023-02-11T19:15:59.480Z,22.08
2023-02-11T19:18:26.231Z,21.60
2023-02-11T19:20:52.761Z,21.17
2023-02-11T19:23:19.367Z,20.60
2023-02-11T19:25:47.261Z,20.73
2023-02-11T19:28:14.201Z,21.13
2023-02-11T19:30:41.436Z,20.35
2023-02-11T19:33:10.122Z,20.95
2023-02-11T19:35:36.989Z,19.98
2023-02-11T19:38:06.466Z,21.23
2023-02-11T19:40:33.316Z,21.50
2023-02-11T19:42:59.910Z,20.33
2023-02-11T19:45:26.926Z,20.70
2023-02-11T19:47:57.040Z,20.08
2023-02-11T19:50:24.191Z,20.48
2023-02-11T19:52:50.895Z,22.02
2023-02-11T19:55:17.546Z,20.60
2023-02-11T19:57:44.198Z,20.60
2023-02-11T20:00:11.241Z,19.52
2023-02-11T20:02:39.306Z,21.52
2023-02-11T20:05:06.295Z,21.23
2023-02-11T20:07:32.863Z,21.00
2023-02-11T20:09:59.839Z,22.27
2023-02-11T20:12:26.348Z,22.88
2023-02-11T20:14:52.839Z,21.23
2023-02-11T20:17:19.398Z,21.70
2023-02-11T20:19:45.896Z,20.67
2023-02-11T20:22:12.404Z,21.30
2023-02-11T20:24:39.064Z,21.15
2023-02-11T20:27:08.263Z,22.02
2023-02-11T20:29:34.790Z,35.42
2023-02-11T20:32:02.783Z,21.98
2023-02-11T20:34:29.627Z,29.40
2023-02-11T20:36:56.328Z,47.70
2023-02-11T20:39:24.432Z,46.85
2023-02-11T20:41:51.590Z,25.08
2023-02-11T20:44:18.665Z,33.08
2023-02-11T20:46:48.422Z,41.67
2023-02-11T20:49:18.719Z,32.88
2023-02-11T20:51:46.027Z,20.35
2023-02-11T20:54:14.293Z,19.70
2023-02-11T20:56:41.428Z,20.08
2023-02-11T20:59:08.397Z,21.58
2023-02-11T21:01:41.381Z,22.52
2023-02-11T21:04:12.172Z,22.75
2023-02-11T21:06:41.719Z,22.08
2023-02-11T21:09:12.147Z,23.20
2023-02-11T21:11:38.747Z,23.05
2023-02-11T21:14:05.381Z,24.23
2023-02-11T21:16:32.535Z,25.20
2023-02-11T21:19:00.411Z,23.63
2023-02-11T21:21:26.964Z,24.88
2023-02-11T21:23:53.708Z,23.92
2023-02-11T21:26:20.293Z,25.55
2023-02-11T21:28:48.566Z,23.45
2023-02-11T21:31:21.685Z,22.90
2023-02-11T21:33:49.716Z,22.58
2023-02-11T21:36:16.930Z,22.85
2023-02-11T21:38:43.490Z,24.80
2023-02-11T21:41:10.423Z,24.02
2023-02-11T21:43:37.159Z,24.83
2023-02-11T21:46:08.852Z,24.83
2023-02-11T21:48:35.470Z,24.02
2023-02-11T21:51:08.629Z,24.48
2023-02-11T21:53:35.480Z,22.17
2023-02-11T21:56:16.993Z,22.67
2023-02-11T21:58:44.582Z,23.13
2023-02-11T22:01:28.573Z,22.63
2023-02-11T22:03:55.617Z,22.30
2023-02-11T22:06:30.725Z,20.98
2023-02-11T22:08:58.173Z,21.90
2023-02-11T22:11:25.091Z,22.60
2023-02-11T22:13:56.156Z,21.63
2023-02-11T22:16:23.681Z,20.83
2023-02-11T22:18:51.308Z,22.27
2023-02-11T22:21:20.621Z,23.63
2023-02-11T22:26:17.584Z,22.50
2023-02-11T22:28:44.692Z,22.63
2023-02-11T22:31:13.345Z,24.98
2023-02-11T22:33:40.173Z,22.15
2023-02-11T22:36:12.147Z,23.15
2023-02-11T22:38:38.729Z,22.92
2023-02-11T22:41:08.006Z,22.38
2023-02-11T22:43:34.588Z,23.08
2023-02-11T22:46:02.488Z,24.08
2023-02-11T22:48:29.533Z,23.17
2023-02-11T22:50:56.415Z,21.92
2023-02-11T22:53:25.407Z,23.60
2023-02-11T22:55:52.271Z,23.40
2023-02-11T22:58:18.944Z,22.88
2023-02-11T23:00:45.440Z,23.42
2023-02-11T23:03:12.692Z,22.55
2023-02-11T23:05:42.754Z,23.75
2023-02-11T23:08:11.006Z,22.50
2023-02-11T23:10:38.939Z,22.15
2023-02-11T23:13:06.825Z,22.90
2023-02-11T23:15:33.832Z,22.30
2023-02-11T23:18:00.418Z,22.10
2023-02-11T23:20:26.953Z,23.80
2023-02-11T23:22:53.641Z,25.88
2023-02-11T23:25:20.190Z,26.70
2023-02-11T23:27:46.791Z,25.52
2023-02-11T23:30:13.816Z,26.65
2023-02-11T23:32:40.765Z,26.23
2023-02-11T23:35:07.539Z,25.38
2023-02-11T23:37:34.225Z,23.85
2023-02-11T23:40:00.780Z,24.77
2023-02-11T23:42:28.539Z,23.73
2023-02-11T23:44:55.051Z,25.42
2023-02-11T23:47:21.609Z,23.52
2023-02-11T23:49:48.206Z,24.27
2023-02-11T23:52:14.887Z,25.58
2023-02-11T23:54:43.224Z,24.45
2023-02-11T23:57:09.768Z,38.13
2023-02-11T23:59:36.355Z,26.63
